Aérodrome :
LOGIN :

S'inscrire | Disclaimer

   EN    FR    IT 

 










Légende :    VFR   VFR Marginal   IFR   IFR Intensif   IFR Très Intensif
Visi : 
Plafond : 
>= 8 km
>= 3000ft
5 à 8 km
1000 à 3000 ft
1500m à 5 km
500 à 1000 ft
800 à 1500m
200 à 500 ft
< 800m
< 200 ft
Symboles :   Orages  Brouillard  Fortes neiges  Fortes précipitations  Vent > 20 kt
SIGMETs :   Divers  Orages  Givrage  Turbulence  Onde Orograph.  Cendres Volcan.







- Altitude de l'aérodrome : 2697 ft
- Code IATA : BLJ


DABT - Batna

DERNIER METAR :
  • 270200Z 29009KT 9999 SCT016 BKN020 11/07 Q1013

METARs EXPIRÉS :
  • 270100Z 26008KT 9999 SCT016 12/07 Q1013
  • 270000Z 24005KT 9999 SCT016 12/07 Q1014

TAF TAF DABT
Valide du 27 à 00h jusqu'au 28 à 00h UTC


262300Z 2700/2724 34010KT 8000 FEW016 BKN026
TEMPO 2700/2704 5000 -RA FEW023CB
BECMG 2708/2710 36012KT 9999 FEW016 SCT026
BECMG 2720/2722 06008KT
Pas de NOTAMs connus pour ce terrain.



MET'MAP, la Météo Aéronautique d'un coup d'oeil ! - Copyright ORBIFLY Décembre 2007 - Disclaimer

ORBIFLY MET'MAP TEAM :

Programmation & Développement : Alexandra Zaïnal
Conception & Développement : Baudouin d'Aumeries
Co-Programmation & Développement : Marc-Olivier Méhu
Soutien technique & logistique : Manuel Goepfert

Contact : metmap@orbifly.com




SOURCES & CREDITS :

   NOAA